createdAt,value
2022-07-31T00:00:01.998Z,10
2022-07-31T00:01:18.300Z,10
2022-07-31T00:02:34.587Z,10.1
2022-07-31T00:03:50.889Z,10.3
2022-07-31T00:05:07.170Z,10.7
2022-07-31T00:06:23.473Z,9.8
2022-07-31T00:07:39.767Z,10.2
2022-07-31T00:08:56.046Z,9.9
2022-07-31T00:10:12.346Z,10.4
2022-07-31T00:11:28.627Z,10
2022-07-31T00:12:43.941Z,9.6
2022-07-31T00:14:00.239Z,9.7
2022-07-31T00:15:16.534Z,9.9
2022-07-31T00:16:32.833Z,10
2022-07-31T00:17:49.111Z,9.4
2022-07-31T00:20:21.700Z,10.2
2022-07-31T00:21:37.000Z,10
2022-07-31T00:22:53.310Z,10.3
2022-07-31T00:24:08.609Z,10
2022-07-31T00:25:23.940Z,10.4
2022-07-31T00:26:39.238Z,11.4
2022-07-31T00:27:55.541Z,10.3
2022-07-31T00:29:11.832Z,11.4
2022-07-31T00:30:28.123Z,11.2
2022-07-31T00:31:44.408Z,10.2
2022-07-31T00:33:00.695Z,10.2
2022-07-31T00:34:17.006Z,10.8
2022-07-31T00:35:33.290Z,11.4
2022-07-31T00:36:49.587Z,11.7
2022-07-31T00:38:05.871Z,11.9
2022-07-31T00:39:22.178Z,12.2
2022-07-31T00:40:38.455Z,12.7
2022-07-31T00:41:54.764Z,12.1
2022-07-31T00:43:10.069Z,12.5
2022-07-31T00:44:26.358Z,11.9
2022-07-31T00:45:42.646Z,12.3
2022-07-31T00:46:58.944Z,11.6
2022-07-31T00:48:15.234Z,12.3
2022-07-31T00:49:31.535Z,12.7
2022-07-31T00:50:47.821Z,12.4
2022-07-31T00:52:03.127Z,11.4
2022-07-31T00:53:18.447Z,11.9
2022-07-31T00:54:33.757Z,12.5
2022-07-31T00:55:49.071Z,12.1
2022-07-31T00:57:05.369Z,12.1
2022-07-31T00:58:21.658Z,12.1
2022-07-31T00:59:37.948Z,12.5
2022-07-31T01:00:54.247Z,12
2022-07-31T01:02:10.539Z,11.5
2022-07-31T01:03:26.818Z,11.3
2022-07-31T01:04:43.118Z,11.8
2022-07-31T01:05:59.403Z,11.6
2022-07-31T01:07:15.711Z,11.2
2022-07-31T01:08:31.999Z,11.2
2022-07-31T01:09:48.296Z,11.1
2022-07-31T01:11:04.574Z,10.6
2022-07-31T01:12:19.888Z,11.1
2022-07-31T01:13:36.175Z,11.3
2022-07-31T01:14:52.465Z,11.8
2022-07-31T01:16:08.768Z,11.6
2022-07-31T01:17:25.063Z,12.1
2022-07-31T01:18:41.345Z,11.6
2022-07-31T01:19:57.638Z,11.9
2022-07-31T01:21:12.969Z,10.6
2022-07-31T01:22:28.273Z,10.3
2022-07-31T01:23:44.563Z,10.6
2022-07-31T01:25:00.865Z,11.6
2022-07-31T01:26:17.141Z,11.2
2022-07-31T01:27:33.448Z,11.1
2022-07-31T01:28:49.724Z,10.4
2022-07-31T01:30:06.037Z,10.6
2022-07-31T01:31:22.316Z,10.5
2022-07-31T01:32:38.619Z,11.4
2022-07-31T01:33:54.913Z,10.8
2022-07-31T01:35:11.200Z,10.8
2022-07-31T01:36:27.481Z,10.1
2022-07-31T01:37:43.792Z,10.8
2022-07-31T01:38:59.084Z,11.3
2022-07-31T01:40:15.392Z,10.3
2022-07-31T01:41:31.691Z,10.3
2022-07-31T01:42:47.975Z,10.3
2022-07-31T01:44:04.262Z,10.9
2022-07-31T01:45:20.566Z,11.5
2022-07-31T01:46:36.853Z,11.3
2022-07-31T01:47:52.165Z,11.1
2022-07-31T01:49:07.469Z,10.5
2022-07-31T01:50:22.787Z,10.4
2022-07-31T01:51:38.094Z,11.1
2022-07-31T01:52:53.421Z,11.2
2022-07-31T01:54:08.711Z,11
2022-07-31T01:55:24.046Z,10.7
2022-07-31T01:56:39.354Z,12.7
2022-07-31T01:57:55.637Z,12.2
2022-07-31T01:59:11.939Z,11.6
2022-07-31T02:00:28.225Z,11.3
2022-07-31T02:01:44.522Z,11.6
2022-07-31T02:03:00.804Z,10.9
2022-07-31T02:04:17.112Z,12.1
2022-07-31T02:05:33.388Z,11.4
2022-07-31T02:06:49.689Z,11.3
2022-07-31T02:08:05.983Z,11.8
2022-07-31T02:09:22.266Z,10.9
2022-07-31T02:10:38.560Z,11.2
2022-07-31T02:11:54.859Z,10.2
2022-07-31T02:13:10.160Z,10.5
2022-07-31T02:14:26.460Z,10.8
2022-07-31T02:15:42.000Z,10.7
2022-07-31T02:16:59.039Z,10.1
2022-07-31T02:18:15.331Z,9.3
2022-07-31T02:19:31.639Z,9.8
2022-07-31T02:20:47.933Z,9.6
2022-07-31T02:22:03.246Z,9.5
2022-07-31T02:23:18.559Z,9.5
2022-07-31T02:24:34.852Z,9
2022-07-31T02:25:50.147Z,10.1
2022-07-31T02:27:05.457Z,9.8
2022-07-31T02:28:21.749Z,9
2022-07-31T02:29:38.051Z,9.1
2022-07-31T02:30:54.334Z,9.3
2022-07-31T02:32:10.640Z,8.4
2022-07-31T02:33:26.932Z,9.4
2022-07-31T02:34:43.230Z,8.7
2022-07-31T02:35:59.521Z,10.1
2022-07-31T02:37:15.800Z,10.4
2022-07-31T02:38:32.095Z,10.7
2022-07-31T02:39:48.394Z,10.7
2022-07-31T02:41:04.682Z,11.1
2022-07-31T02:42:20.976Z,9.9
2022-07-31T02:43:36.286Z,10.5
2022-07-31T02:44:52.579Z,10.4
2022-07-31T02:46:08.869Z,11
2022-07-31T02:47:25.162Z,10.2
2022-07-31T02:48:41.455Z,10.7
2022-07-31T02:49:57.749Z,11.1
2022-07-31T02:51:14.051Z,10.6
2022-07-31T02:52:29.351Z,10.2
2022-07-31T02:53:44.660Z,10.6
2022-07-31T02:55:00.947Z,11.5
2022-07-31T02:56:17.243Z,11.3
2022-07-31T02:57:33.550Z,12.4
2022-07-31T02:58:49.830Z,11.4
2022-07-31T03:00:06.119Z,11.6
2022-07-31T03:01:22.411Z,11
2022-07-31T03:02:38.668Z,11
2022-07-31T03:03:54.944Z,11.1
2022-07-31T03:05:11.204Z,11.4
2022-07-31T03:06:27.442Z,11.7
2022-07-31T03:07:43.680Z,11.8
2022-07-31T03:08:59.971Z,11.8
2022-07-31T03:10:15.273Z,11.2
2022-07-31T03:11:31.528Z,11.7
2022-07-31T03:12:47.765Z,11.7
2022-07-31T03:14:04.016Z,10.4
2022-07-31T03:15:20.250Z,11.3
2022-07-31T03:16:36.489Z,11.2
2022-07-31T03:17:52.729Z,10.8
2022-07-31T03:19:07.976Z,11.3
2022-07-31T03:20:23.236Z,11.8
2022-07-31T03:21:38.490Z,12.2
2022-07-31T03:22:54.731Z,11.9
2022-07-31T03:24:10.982Z,11.4
2022-07-31T03:25:27.218Z,11.3
2022-07-31T03:26:43.456Z,11.3
2022-07-31T03:27:59.683Z,11.3
2022-07-31T03:29:15.927Z,12
2022-07-31T03:30:32.175Z,11.4
2022-07-31T03:31:48.415Z,11.4
2022-07-31T03:33:04.644Z,11.6
2022-07-31T03:34:20.894Z,11.5
2022-07-31T03:35:37.119Z,11.3
2022-07-31T03:36:53.357Z,10.8
2022-07-31T03:38:08.616Z,11.3
2022-07-31T03:39:24.855Z,11.2
2022-07-31T03:40:41.089Z,11.2
2022-07-31T03:41:57.337Z,11.5
2022-07-31T03:43:13.575Z,12.4
2022-07-31T03:44:29.818Z,12.3
2022-07-31T03:45:45.079Z,12.4
2022-07-31T03:47:00.331Z,12.8
2022-07-31T03:48:15.590Z,12.2
2022-07-31T03:49:30.847Z,11.7
2022-07-31T03:50:47.082Z,12.3
2022-07-31T03:52:03.316Z,13
2022-07-31T03:53:19.559Z,11.9
2022-07-31T03:54:35.790Z,12
2022-07-31T03:55:52.038Z,12.3
2022-07-31T03:57:08.282Z,12.9
2022-07-31T03:58:24.517Z,12.9
2022-07-31T03:59:40.749Z,12.7
2022-07-31T04:00:56.982Z,13.5
2022-07-31T04:02:13.225Z,12.8
2022-07-31T04:03:29.468Z,13.1
2022-07-31T04:04:45.709Z,13.1
2022-07-31T04:06:00.956Z,13.3
2022-07-31T04:07:17.205Z,14
2022-07-31T04:08:33.434Z,14.1
2022-07-31T04:09:49.682Z,13.4
2022-07-31T04:11:05.913Z,13.2
2022-07-31T04:12:22.148Z,13.7
2022-07-31T04:13:38.391Z,12.9
2022-07-31T04:14:53.648Z,13.6
2022-07-31T04:16:08.902Z,13.1
2022-07-31T04:17:24.167Z,13
2022-07-31T04:18:39.423Z,14
2022-07-31T04:19:54.697Z,13.7
2022-07-31T04:21:09.950Z,14.1
2022-07-31T04:22:25.196Z,13.6
2022-07-31T04:23:40.460Z,13.6
2022-07-31T04:24:56.692Z,14.2
2022-07-31T04:26:12.928Z,13.8
2022-07-31T04:27:29.164Z,13.9
2022-07-31T04:28:45.401Z,15.1
2022-07-31T04:30:01.644Z,13.9
2022-07-31T04:31:17.882Z,14.6
2022-07-31T04:32:34.119Z,14.8
2022-07-31T04:33:50.375Z,14.6
2022-07-31T04:35:06.611Z,14.1
2022-07-31T04:36:22.844Z,14.3
2022-07-31T04:37:39.074Z,14
2022-07-31T04:38:55.318Z,13.7
2022-07-31T04:40:10.585Z,13.9
2022-07-31T04:41:26.820Z,14.2
2022-07-31T04:42:43.061Z,14.1
2022-07-31T04:43:59.293Z,13.6
2022-07-31T04:45:15.538Z,14
2022-07-31T04:46:31.763Z,14
2022-07-31T04:47:48.017Z,14.3
2022-07-31T04:49:03.268Z,13.5
2022-07-31T04:50:18.519Z,14.4
2022-07-31T04:51:34.769Z,14.5
2022-07-31T04:52:51.011Z,13.6
2022-07-31T04:54:07.233Z,14.4
2022-07-31T04:55:23.470Z,14
2022-07-31T04:56:39.718Z,14.1
2022-07-31T04:57:55.956Z,14.6
2022-07-31T04:59:12.202Z,14
2022-07-31T05:00:28.432Z,13.3
2022-07-31T05:01:44.665Z,13.8
2022-07-31T05:03:00.917Z,14
2022-07-31T05:04:17.152Z,14
2022-07-31T05:05:33.392Z,14.2
2022-07-31T05:06:48.634Z,14.1
2022-07-31T05:08:04.877Z,14.9
2022-07-31T05:09:21.124Z,14.2
2022-07-31T05:10:37.364Z,13.5
2022-07-31T05:11:53.593Z,13.7
2022-07-31T05:13:09.836Z,14.3
2022-07-31T05:14:26.071Z,13.3
2022-07-31T05:15:41.331Z,13.9
2022-07-31T05:16:56.582Z,13.1
2022-07-31T05:18:12.831Z,13.4
2022-07-31T05:19:29.061Z,13.9
2022-07-31T05:20:45.312Z,13.6
2022-07-31T05:22:01.000Z,13.8
2022-07-31T05:23:17.783Z,13
2022-07-31T05:24:34.027Z,13.4
2022-07-31T05:25:50.254Z,13.4
2022-07-31T05:27:06.507Z,13.6
2022-07-31T05:28:22.741Z,13.6
2022-07-31T05:29:38.973Z,12.5
2022-07-31T05:30:55.229Z,13.2
2022-07-31T05:32:11.461Z,13.3
2022-07-31T05:33:26.704Z,12.8
2022-07-31T05:34:42.944Z,13.2
2022-07-31T05:35:59.199Z,12.4
2022-07-31T05:37:15.432Z,13.6
2022-07-31T05:38:31.676Z,12.8
2022-07-31T05:39:47.905Z,12.9
2022-07-31T05:41:04.146Z,12.6
2022-07-31T05:42:19.417Z,12.8
2022-07-31T05:43:34.671Z,12.1
2022-07-31T05:44:50.902Z,11.5
2022-07-31T05:46:07.137Z,11.7
2022-07-31T05:47:23.371Z,11.5
2022-07-31T05:48:39.618Z,11.6
2022-07-31T05:49:55.856Z,11.2
2022-07-31T05:51:12.097Z,11.3
2022-07-31T05:52:28.325Z,10.6
2022-07-31T05:53:44.565Z,11.2
2022-07-31T05:55:00.807Z,11.5
2022-07-31T05:56:17.044Z,11.2
2022-07-31T05:57:33.290Z,10.9
2022-07-31T05:58:49.000Z,11.6
2022-07-31T06:00:04.774Z,11.5
2022-07-31T06:01:21.016Z,10.8
2022-07-31T06:02:37.257Z,10.7
2022-07-31T06:03:53.490Z,10.6
2022-07-31T06:05:09.747Z,10.7
2022-07-31T06:06:25.983Z,10.9
2022-07-31T06:07:42.222Z,10.4
2022-07-31T06:08:57.476Z,10.6
2022-07-31T06:10:12.735Z,10.6
2022-07-31T06:11:28.982Z,10.2
2022-07-31T06:12:45.216Z,10.2
2022-07-31T06:14:01.440Z,10.2
2022-07-31T06:15:17.685Z,10
2022-07-31T06:16:33.920Z,9
2022-07-31T06:17:50.174Z,9
2022-07-31T06:19:06.405Z,9.9
2022-07-31T06:20:22.656Z,10.9
2022-07-31T06:21:38.895Z,10.2
2022-07-31T06:22:55.127Z,9.6
2022-07-31T06:24:11.355Z,9.7
2022-07-31T06:25:27.600Z,9.5
2022-07-31T06:26:42.848Z,9.4
2022-07-31T06:27:59.090Z,9.9
2022-07-31T06:29:15.338Z,10.2
2022-07-31T06:30:31.584Z,10.3
2022-07-31T06:31:47.818Z,9.9
2022-07-31T06:33:04.045Z,9.5
2022-07-31T06:34:20.300Z,9.2
2022-07-31T06:35:36.536Z,9.4
2022-07-31T06:36:52.771Z,8.8
2022-07-31T06:38:09.008Z,9
2022-07-31T06:39:25.255Z,9.2
2022-07-31T06:40:41.495Z,8.4
2022-07-31T06:41:57.726Z,9
2022-07-31T06:43:12.989Z,9.2
2022-07-31T06:44:29.219Z,9.2
2022-07-31T06:45:45.469Z,8.9
2022-07-31T06:47:01.691Z,9.2
2022-07-31T06:48:17.934Z,8.8
2022-07-31T06:49:34.188Z,8.9
2022-07-31T06:50:50.420Z,8.2
2022-07-31T06:52:06.650Z,9.1
2022-07-31T06:53:22.898Z,8.6
2022-07-31T06:54:39.128Z,8.5
2022-07-31T06:55:55.378Z,8.9
2022-07-31T06:57:11.608Z,9
2022-07-31T06:58:27.858Z,7.9
2022-07-31T06:59:43.112Z,8.3
2022-07-31T07:00:59.358Z,8.4
2022-07-31T07:02:15.594Z,8.6
2022-07-31T07:03:31.830Z,8.2
2022-07-31T07:04:48.070Z,8.7
2022-07-31T07:06:04.311Z,8.8
2022-07-31T07:07:20.556Z,8.7
2022-07-31T07:08:36.794Z,8.7
2022-07-31T07:09:53.028Z,8.6
2022-07-31T07:11:09.268Z,8.1
2022-07-31T07:12:25.500Z,8.9
2022-07-31T07:13:41.745Z,8.5
2022-07-31T07:14:57.977Z,7.9
2022-07-31T07:16:13.239Z,8
2022-07-31T07:17:29.491Z,8.1
2022-07-31T07:18:45.718Z,8.1
2022-07-31T07:20:01.965Z,7.8
2022-07-31T07:21:18.203Z,8.2
2022-07-31T07:22:34.443Z,8.1
2022-07-31T07:23:50.679Z,7.6
2022-07-31T07:25:06.924Z,7.8
2022-07-31T07:26:23.156Z,7.5
2022-07-31T07:27:39.407Z,7.6
2022-07-31T07:28:55.647Z,7.3
2022-07-31T07:30:11.879Z,8.4
2022-07-31T07:31:28.117Z,7.5
2022-07-31T07:32:43.384Z,7.1
2022-07-31T07:33:59.618Z,7.4
2022-07-31T07:35:15.854Z,7.4
2022-07-31T07:36:31.110Z,7.1
2022-07-31T07:37:47.359Z,7.8
2022-07-31T07:39:03.589Z,7.5
2022-07-31T07:40:19.840Z,8.2
2022-07-31T07:41:36.075Z,7.3
2022-07-31T07:42:52.309Z,7.5
2022-07-31T07:44:08.566Z,7.5
2022-07-31T07:45:24.802Z,7.1
2022-07-31T07:46:41.029Z,6.9
2022-07-31T07:47:57.285Z,7.4
2022-07-31T07:49:13.509Z,7.2
2022-07-31T07:50:29.755Z,7
2022-07-31T07:51:46.002Z,8.5
2022-07-31T07:53:01.252Z,7.9
2022-07-31T07:54:17.497Z,8
2022-07-31T07:55:33.743Z,7.3
2022-07-31T07:56:49.982Z,7.2
2022-07-31T07:58:06.207Z,7.5
2022-07-31T07:59:22.463Z,7.6
2022-07-31T08:00:38.690Z,7.7
2022-07-31T08:01:54.943Z,7.9
2022-07-31T08:03:11.185Z,7.4
2022-07-31T08:04:27.420Z,6.9
2022-07-31T08:05:43.663Z,6.9
2022-07-31T08:06:59.908Z,7.5
2022-07-31T08:08:16.128Z,7.1
2022-07-31T08:09:31.394Z,7.5
2022-07-31T08:10:47.632Z,8.2
2022-07-31T08:12:03.883Z,7
2022-07-31T08:13:20.116Z,7.5
2022-07-31T08:14:36.347Z,7.4
2022-07-31T08:15:52.602Z,7
2022-07-31T08:17:08.832Z,7.2
2022-07-31T08:18:25.076Z,7.4
2022-07-31T08:19:41.322Z,8
2022-07-31T08:20:57.554Z,7.3
2022-07-31T08:22:13.804Z,7.5
2022-07-31T08:23:30.037Z,7.2
2022-07-31T08:24:46.282Z,7.1
2022-07-31T08:26:01.527Z,6.7
2022-07-31T08:27:17.772Z,7.5
2022-07-31T08:28:34.022Z,7
2022-07-31T08:29:50.251Z,6.1
2022-07-31T08:31:06.492Z,6.4
2022-07-31T08:32:22.741Z,6.7
2022-07-31T08:33:38.968Z,7.2
2022-07-31T08:34:55.219Z,6.5
2022-07-31T08:36:11.458Z,6.7
2022-07-31T08:37:27.695Z,6.5
2022-07-31T08:38:43.935Z,7.4
2022-07-31T08:40:00.175Z,7.4
2022-07-31T08:41:16.418Z,6.9
2022-07-31T08:42:31.680Z,6.3
2022-07-31T08:45:04.168Z,6.7
2022-07-31T08:46:20.406Z,6.9
2022-07-31T08:47:36.643Z,6.3
2022-07-31T08:48:52.884Z,6.4
2022-07-31T08:50:09.117Z,6.5
2022-07-31T08:51:25.365Z,6.4
2022-07-31T08:52:41.604Z,6.5
2022-07-31T08:53:57.845Z,6.5
2022-07-31T08:55:14.072Z,6.1
2022-07-31T08:56:30.327Z,5.9
2022-07-31T08:57:46.566Z,6.3
2022-07-31T08:59:01.812Z,6.3
2022-07-31T09:00:18.065Z,6.9
2022-07-31T09:01:34.297Z,6.8
2022-07-31T09:02:50.540Z,7
2022-07-31T09:04:06.780Z,7.8
2022-07-31T09:05:23.026Z,6.7
2022-07-31T09:07:55.513Z,7.8
2022-07-31T09:09:11.737Z,6.9
2022-07-31T09:10:27.975Z,7.1
2022-07-31T09:11:44.216Z,7
2022-07-31T09:13:00.471Z,7.4
2022-07-31T09:14:16.699Z,6.3
2022-07-31T09:15:31.951Z,7.1
2022-07-31T09:16:48.199Z,6.7
2022-07-31T09:18:04.439Z,7
2022-07-31T09:19:20.678Z,6.9
2022-07-31T09:20:36.922Z,7
2022-07-31T09:21:53.160Z,6.7
2022-07-31T09:23:09.393Z,5.9
2022-07-31T09:24:25.648Z,6.3
2022-07-31T09:25:41.878Z,6.1
2022-07-31T09:26:58.124Z,5.9
2022-07-31T09:28:14.367Z,5.7
2022-07-31T09:29:30.597Z,5.2
2022-07-31T09:30:46.845Z,5.4
2022-07-31T09:32:02.101Z,5.3
2022-07-31T09:33:18.336Z,5.6
2022-07-31T09:34:34.574Z,4.6
2022-07-31T09:35:50.818Z,4.8
2022-07-31T09:37:07.055Z,4.9
2022-07-31T09:38:23.313Z,4.9
2022-07-31T09:39:39.537Z,4.8
2022-07-31T09:40:55.782Z,4.9
2022-07-31T09:42:12.025Z,4.8
2022-07-31T09:43:28.264Z,4.8
2022-07-31T09:44:44.516Z,4.5
2022-07-31T09:46:00.754Z,4.6
2022-07-31T09:47:16.984Z,4.3
2022-07-31T09:48:32.252Z,4
2022-07-31T09:49:48.484Z,4.5
2022-07-31T09:51:04.722Z,4.8
2022-07-31T09:52:20.964Z,5.1
2022-07-31T09:53:37.205Z,4.6
2022-07-31T09:54:53.452Z,4.6
2022-07-31T09:56:09.683Z,4.1
2022-07-31T09:57:25.926Z,4.3
2022-07-31T09:58:42.175Z,4.4
2022-07-31T09:59:58.414Z,4.2
2022-07-31T10:01:14.651Z,4.5
2022-07-31T10:02:30.000Z,4.3
2022-07-31T10:03:47.114Z,4.7
2022-07-31T10:05:02.390Z,4.2
2022-07-31T10:06:18.612Z,4.3
2022-07-31T10:07:34.868Z,3.9
2022-07-31T10:08:51.098Z,3.9
2022-07-31T10:10:07.339Z,4.4
2022-07-31T10:11:23.568Z,4.4
2022-07-31T10:12:39.812Z,4
2022-07-31T10:13:56.066Z,4.2
2022-07-31T10:15:12.296Z,3.7
2022-07-31T10:16:28.535Z,3.4
2022-07-31T10:17:44.771Z,3.7
2022-07-31T10:19:01.017Z,3.5
2022-07-31T10:20:17.251Z,3.5
2022-07-31T10:21:32.498Z,3.3
2022-07-31T10:22:48.743Z,3.3
2022-07-31T10:24:04.983Z,3.6
2022-07-31T10:25:21.220Z,4.5
2022-07-31T10:26:37.472Z,3.7
2022-07-31T10:27:53.695Z,3.7
2022-07-31T10:29:09.943Z,3.5
2022-07-31T10:30:26.181Z,3.1
2022-07-31T10:31:42.425Z,3
2022-07-31T10:32:58.654Z,2.9
2022-07-31T10:34:14.902Z,3.4
2022-07-31T10:35:31.135Z,2.9
2022-07-31T10:36:47.391Z,2.8
2022-07-31T10:38:02.637Z,3.1
2022-07-31T10:39:18.885Z,3.2
2022-07-31T10:40:35.115Z,2.5
2022-07-31T10:41:51.356Z,2.7
2022-07-31T10:43:07.594Z,3
2022-07-31T10:44:23.838Z,2.9
2022-07-31T10:45:40.067Z,2.6
2022-07-31T10:46:56.314Z,3.1
2022-07-31T10:48:12.551Z,3
2022-07-31T10:49:28.787Z,3.4
2022-07-31T10:50:45.030Z,3.3
2022-07-31T10:52:01.271Z,3
2022-07-31T10:53:17.509Z,2.9
2022-07-31T10:54:32.759Z,2.8
2022-07-31T10:55:49.004Z,2.5
2022-07-31T10:57:05.231Z,2.6
2022-07-31T10:58:21.470Z,2.4
2022-07-31T10:59:37.720Z,2.3
2022-07-31T11:00:53.942Z,2.4
2022-07-31T11:02:10.183Z,2.5
2022-07-31T11:03:26.436Z,2.6
2022-07-31T11:04:42.660Z,2.6
2022-07-31T11:05:58.895Z,2.5
2022-07-31T11:07:15.145Z,1.9
2022-07-31T11:08:31.371Z,2.1
2022-07-31T11:09:47.624Z,1.8
2022-07-31T11:11:02.865Z,2
2022-07-31T11:12:19.101Z,2.2
2022-07-31T11:13:35.360Z,2.1
2022-07-31T11:14:51.595Z,2.1
2022-07-31T11:16:07.820Z,1.8
2022-07-31T11:17:24.057Z,2.1
2022-07-31T11:18:40.307Z,2.1
2022-07-31T11:19:56.544Z,2.1
2022-07-31T11:21:12.780Z,2
2022-07-31T11:22:29.022Z,2.1
2022-07-31T11:23:45.255Z,1.9
2022-07-31T11:25:01.498Z,1.8
2022-07-31T11:26:17.728Z,1.7
2022-07-31T11:27:32.988Z,1.6
2022-07-31T11:28:49.230Z,2
2022-07-31T11:30:05.476Z,2
2022-07-31T11:31:21.696Z,1.9
2022-07-31T11:32:37.940Z,2.5
2022-07-31T11:33:54.171Z,2.2
2022-07-31T11:35:10.426Z,2.4
2022-07-31T11:36:26.657Z,2.1
2022-07-31T11:37:42.892Z,2
2022-07-31T11:38:59.145Z,2.1
2022-07-31T11:40:15.365Z,1.6
2022-07-31T11:41:31.623Z,1.7
2022-07-31T11:42:47.845Z,1.9
2022-07-31T11:44:03.095Z,1.8
2022-07-31T11:45:19.351Z,1.6
2022-07-31T11:46:35.594Z,1.8
2022-07-31T11:47:51.824Z,1.6
2022-07-31T11:49:08.051Z,1.7
2022-07-31T11:50:24.305Z,2
2022-07-31T11:51:39.550Z,1.9
2022-07-31T11:52:55.800Z,1.8
2022-07-31T11:54:12.032Z,1.5
2022-07-31T11:55:28.274Z,1.7
2022-07-31T11:56:44.512Z,1.7
2022-07-31T11:58:00.755Z,1.5
2022-07-31T11:59:16.999Z,1.7
2022-07-31T12:00:33.231Z,1.8
2022-07-31T12:01:49.469Z,1.5
2022-07-31T12:03:05.699Z,1.7
2022-07-31T12:04:21.945Z,1.7
2022-07-31T12:05:38.190Z,1.6
2022-07-31T12:06:54.425Z,1.8
2022-07-31T12:08:09.682Z,1.7
2022-07-31T12:09:25.912Z,1.7
2022-07-31T12:10:42.159Z,1.6
2022-07-31T12:11:58.390Z,1.9
2022-07-31T12:13:14.629Z,1.7
2022-07-31T12:14:30.879Z,1.4
2022-07-31T12:15:47.123Z,1.7
2022-07-31T12:17:03.360Z,1.9
2022-07-31T12:18:19.580Z,1.9
2022-07-31T12:19:35.826Z,1.8
2022-07-31T12:20:52.072Z,1.5
2022-07-31T12:22:08.307Z,1.6
2022-07-31T12:23:24.542Z,1.5
2022-07-31T12:24:39.802Z,1.6
2022-07-31T12:25:56.032Z,1.8
2022-07-31T12:27:12.288Z,1.5
2022-07-31T12:28:28.524Z,1.8
2022-07-31T12:29:44.766Z,1.7
2022-07-31T12:31:00.996Z,1.8
2022-07-31T12:32:17.229Z,1.6
2022-07-31T12:33:33.466Z,1.8
2022-07-31T12:34:49.726Z,1.6
2022-07-31T12:36:05.960Z,1.8
2022-07-31T12:37:22.188Z,2
2022-07-31T12:38:38.424Z,1.7
2022-07-31T12:39:54.678Z,1.8
2022-07-31T12:41:09.918Z,1.7
2022-07-31T12:42:26.177Z,2
2022-07-31T12:43:42.408Z,1.8
2022-07-31T12:44:58.646Z,1.6
2022-07-31T12:46:14.882Z,1.6
2022-07-31T12:47:31.118Z,1.6
2022-07-31T12:48:47.365Z,1.7
2022-07-31T12:50:03.609Z,1.5
2022-07-31T12:51:19.848Z,2.1
2022-07-31T12:52:36.090Z,1.5
2022-07-31T12:53:52.316Z,1.5
2022-07-31T12:55:08.562Z,1.4
2022-07-31T12:56:24.797Z,1.8
2022-07-31T12:57:40.064Z,1.6
2022-07-31T12:58:56.294Z,1.4
2022-07-31T13:00:12.544Z,1.4
2022-07-31T13:01:28.772Z,1.4
2022-07-31T13:02:45.014Z,1.5
2022-07-31T13:04:01.262Z,1.4
2022-07-31T13:05:17.491Z,1.3
2022-07-31T13:06:33.740Z,1.3
2022-07-31T13:07:49.974Z,1.5
2022-07-31T13:09:06.220Z,1.2
2022-07-31T13:10:22.461Z,1.5
2022-07-31T13:11:38.698Z,1.4
2022-07-31T13:12:54.934Z,1.6
2022-07-31T13:14:10.198Z,1.3
2022-07-31T13:15:26.429Z,1.1
2022-07-31T13:16:42.675Z,1.4
2022-07-31T13:17:58.915Z,1.5
2022-07-31T13:19:15.153Z,1.2
2022-07-31T13:20:31.391Z,1.5
2022-07-31T13:21:47.636Z,1.6
2022-07-31T13:23:03.876Z,1.3
2022-07-31T13:24:20.104Z,1.3
2022-07-31T13:25:36.342Z,1.3
2022-07-31T13:26:52.597Z,1.2
2022-07-31T13:28:08.825Z,1.1
2022-07-31T13:29:25.076Z,1.2
2022-07-31T13:30:40.321Z,1
2022-07-31T13:31:56.563Z,1.1
2022-07-31T13:33:12.811Z,1.1
2022-07-31T13:34:29.051Z,1.2
2022-07-31T13:35:45.277Z,1
2022-07-31T13:37:01.530Z,1.2
2022-07-31T13:38:17.764Z,1.2
2022-07-31T13:39:34.009Z,1
2022-07-31T13:40:50.236Z,1.1
2022-07-31T13:42:06.483Z,1.2
2022-07-31T13:43:22.721Z,1.1
2022-07-31T13:44:38.958Z,1.2
2022-07-31T13:45:55.211Z,1
2022-07-31T13:47:10.457Z,1.2
2022-07-31T13:48:26.692Z,1.5
2022-07-31T13:49:42.937Z,1
2022-07-31T13:50:59.183Z,0.8
2022-07-31T13:52:15.418Z,1
2022-07-31T13:53:31.660Z,1
2022-07-31T13:54:47.900Z,1.1
2022-07-31T13:56:04.150Z,1.1
2022-07-31T13:57:20.371Z,1
2022-07-31T13:58:36.620Z,1
2022-07-31T13:59:52.863Z,1.2
2022-07-31T14:01:09.088Z,1.2
2022-07-31T14:02:25.332Z,1.3
2022-07-31T14:03:40.599Z,1.3
2022-07-31T14:04:56.838Z,1.4
2022-07-31T14:06:13.069Z,1.2
2022-07-31T14:07:29.317Z,1
2022-07-31T14:08:45.557Z,1.2
2022-07-31T14:10:01.805Z,1.1
2022-07-31T14:11:18.027Z,1.2
2022-07-31T14:12:34.283Z,1.3
2022-07-31T14:13:50.507Z,1.1
2022-07-31T14:15:06.753Z,1.1
2022-07-31T14:16:22.999Z,1.1
2022-07-31T14:17:39.234Z,1.1
2022-07-31T14:18:55.476Z,1.3
2022-07-31T14:20:10.727Z,1.1
2022-07-31T14:21:26.969Z,1.2
2022-07-31T14:22:43.212Z,1
2022-07-31T14:23:59.455Z,1.5
2022-07-31T14:25:15.693Z,1.2
2022-07-31T14:26:31.926Z,1.1
2022-07-31T14:27:48.166Z,1.2
2022-07-31T14:29:04.403Z,1.2
2022-07-31T14:30:20.651Z,1.2
2022-07-31T14:31:36.892Z,1.1
2022-07-31T14:32:53.139Z,1.1
2022-07-31T14:34:09.375Z,1.3
2022-07-31T14:35:25.605Z,1.2
2022-07-31T14:36:40.868Z,1.2
2022-07-31T14:37:57.104Z,1.1
2022-07-31T14:39:13.351Z,1.1
2022-07-31T14:40:29.588Z,1.3
2022-07-31T14:41:45.825Z,1.2
2022-07-31T14:43:02.076Z,1.2
2022-07-31T14:44:18.310Z,1.1
2022-07-31T14:45:34.545Z,1.2
2022-07-31T14:46:50.786Z,1.2
2022-07-31T14:48:07.026Z,1.2
2022-07-31T14:49:23.267Z,1.2
2022-07-31T14:50:39.501Z,1.3
2022-07-31T14:51:55.743Z,1.1
2022-07-31T14:53:10.997Z,1.4
2022-07-31T14:54:27.249Z,1.2
2022-07-31T14:55:43.477Z,1.4
2022-07-31T14:56:59.733Z,1.1
2022-07-31T14:58:15.962Z,1.2
2022-07-31T14:59:32.206Z,1.3
2022-07-31T15:00:48.441Z,1.5
2022-07-31T15:02:04.687Z,1.4
2022-07-31T15:03:20.923Z,1.2
2022-07-31T15:04:37.174Z,1.2
2022-07-31T15:05:53.397Z,1.4
2022-07-31T15:07:09.654Z,1.3
2022-07-31T15:08:25.897Z,1.2
2022-07-31T15:09:41.139Z,1.4
2022-07-31T15:10:57.380Z,1.2
2022-07-31T15:12:13.613Z,1.4
2022-07-31T15:13:29.859Z,1.2
2022-07-31T15:14:46.100Z,1.1
2022-07-31T15:16:02.344Z,1.2
2022-07-31T15:17:18.580Z,1.1
2022-07-31T15:18:34.816Z,1.3
2022-07-31T15:19:51.054Z,1.7
2022-07-31T15:21:07.298Z,1.4
2022-07-31T15:22:23.549Z,1.2
2022-07-31T15:23:39.791Z,1.3
2022-07-31T15:24:56.034Z,1.3
2022-07-31T15:26:11.287Z,1.3
2022-07-31T15:27:27.526Z,1.4
2022-07-31T15:28:43.762Z,1.4
2022-07-31T15:30:00.009Z,1.4
2022-07-31T15:31:16.242Z,1.3
2022-07-31T15:32:32.479Z,1.3
2022-07-31T15:33:48.717Z,1.2
2022-07-31T15:35:04.959Z,1.3
2022-07-31T15:36:21.197Z,1.4
2022-07-31T15:37:37.447Z,1.2
2022-07-31T15:38:53.672Z,1.2
2022-07-31T15:40:09.914Z,1.1
2022-07-31T15:41:26.158Z,1.4
2022-07-31T15:42:41.422Z,1.5
2022-07-31T15:43:57.663Z,1.6
2022-07-31T15:45:13.898Z,1.6
2022-07-31T15:46:30.140Z,1.6
2022-07-31T15:47:46.375Z,1.3
2022-07-31T15:49:02.621Z,1.5
2022-07-31T15:50:18.846Z,2.2
2022-07-31T15:51:35.102Z,1.3
2022-07-31T15:52:51.334Z,1.4
2022-07-31T15:54:07.579Z,1.4
2022-07-31T15:55:23.817Z,1.8
2022-07-31T15:56:40.059Z,1.4
2022-07-31T15:57:56.306Z,1.5
2022-07-31T15:59:11.558Z,1.7
2022-07-31T16:00:27.801Z,1.3
2022-07-31T16:01:44.042Z,1.3
2022-07-31T16:03:00.268Z,1.5
2022-07-31T16:04:16.517Z,1.6
2022-07-31T16:05:32.751Z,1.6
2022-07-31T16:06:48.024Z,1.7
2022-07-31T16:08:04.255Z,1.5
2022-07-31T16:09:20.486Z,1.4
2022-07-31T16:10:36.743Z,1.4
2022-07-31T16:11:52.976Z,1.6
2022-07-31T16:13:09.221Z,1.4
2022-07-31T16:14:25.449Z,1.5
2022-07-31T16:15:41.700Z,1.2
2022-07-31T16:16:57.942Z,1.3
2022-07-31T16:18:14.168Z,1.3
2022-07-31T16:19:30.413Z,1.1
2022-07-31T16:20:46.651Z,1.2
2022-07-31T16:22:02.894Z,1.3
2022-07-31T16:23:18.145Z,1.3
2022-07-31T16:24:34.383Z,1.6
2022-07-31T16:25:50.632Z,1.1
2022-07-31T16:27:06.865Z,1.2
2022-07-31T16:28:23.106Z,1.3
2022-07-31T16:29:39.339Z,1.2
2022-07-31T16:30:55.582Z,1.3
2022-07-31T16:32:11.834Z,1.3
2022-07-31T16:33:28.073Z,1.2
2022-07-31T16:34:44.302Z,1.3
2022-07-31T16:36:00.557Z,1.4
2022-07-31T16:37:16.797Z,1.2
2022-07-31T16:38:33.023Z,1.4
2022-07-31T16:39:48.282Z,1.3
2022-07-31T16:41:04.529Z,1.3
2022-07-31T16:42:20.756Z,1.4
2022-07-31T16:43:36.993Z,1.2
2022-07-31T16:44:53.240Z,1.3
2022-07-31T16:47:25.722Z,1.3
2022-07-31T16:48:41.957Z,1.4
2022-07-31T16:49:58.194Z,1.4
2022-07-31T16:51:14.432Z,1.1
2022-07-31T16:52:30.692Z,1.4
2022-07-31T16:53:46.930Z,1.4
2022-07-31T16:55:03.156Z,1.4
2022-07-31T16:56:18.419Z,1.3
2022-07-31T16:57:34.649Z,1.3
2022-07-31T16:58:50.906Z,1.7
2022-07-31T17:00:07.141Z,1.4
2022-07-31T17:01:23.381Z,1.3
2022-07-31T17:02:39.613Z,1.4
2022-07-31T17:03:55.850Z,1.4
2022-07-31T17:05:12.097Z,1.3
2022-07-31T17:06:28.330Z,1.6
2022-07-31T17:07:44.572Z,1.3
2022-07-31T17:09:00.812Z,1.4
2022-07-31T17:10:17.052Z,1.4
2022-07-31T17:11:33.290Z,2
2022-07-31T17:12:48.552Z,1.5
2022-07-31T17:14:04.786Z,1.5
2022-07-31T17:15:21.000Z,1.5
2022-07-31T17:16:37.259Z,1.6
2022-07-31T17:17:53.502Z,1.4
2022-07-31T17:19:09.739Z,1.5
2022-07-31T17:20:25.977Z,1.3
2022-07-31T17:21:42.234Z,1.3
2022-07-31T17:22:58.468Z,1.5
2022-07-31T17:24:14.705Z,1.5
2022-07-31T17:25:30.945Z,1.4
2022-07-31T17:26:47.183Z,1.5